Time;durP1;ratioP1;P1;durP2;ratioP2;P2;SDS_P1;SDS_P2;PMS_P1;PMS_P2;Temp;Humidity;BMP_temperature;BMP_pressure;BME280_temperature;BME280_humidity;BME280_pressure;Samples;Min_cycle;Max_cycle;Signal;HPM_P1;HPM_P2
2023/03/08 00:02:06;;;;;;;16.50;10.95;;;;;;;-0.51;100.00;97821.41;5083213;28;20394;-59
2023/03/08 00:04:31;;;;;;;16.90;10.90;;;;;;;-0.51;100.00;97815.34;5064807;28;20462;-59
2023/03/08 00:06:57;;;;;;;18.23;11.35;;;;;;;-0.51;100.00;97820.63;5091499;28;20032;-60
2023/03/08 00:09:22;;;;;;;24.90;13.73;;;;;;;-0.51;100.00;97815.34;5078671;28;20040;-60
2023/03/08 00:11:47;;;;;;;21.25;13.00;;;;;;;-0.50;100.00;97819.59;5088410;28;20120;-60
2023/03/08 00:14:13;;;;;;;20.48;13.25;;;;;;;-0.66;100.00;97813.75;5080950;28;20048;-60
2023/03/08 00:16:38;;;;;;;17.10;11.32;;;;;;;-0.62;100.00;97813.34;5085179;28;20029;-60
2023/03/08 00:19:04;;;;;;;20.50;13.13;;;;;;;-0.52;100.00;97808.47;5062915;28;20096;-59
2023/03/08 00:21:29;;;;;;;21.52;12.98;;;;;;;-0.67;100.00;97812.13;5083503;28;20501;-60
2023/03/08 00:23:55;;;;;;;22.13;13.48;;;;;;;-0.64;100.00;97815.38;5075873;28;20498;-59
2023/03/08 00:26:20;;;;;;;23.35;14.40;;;;;;;-0.57;100.00;97813.56;5083932;28;20352;-60
2023/03/08 00:28:46;;;;;;;20.42;12.52;;;;;;;-0.61;100.00;97804.44;5077385;28;20097;-59
2023/03/08 00:31:11;;;;;;;24.55;13.50;;;;;;;-0.60;100.00;97800.78;5077819;28;20355;-60
2023/03/08 00:33:37;;;;;;;19.02;11.55;;;;;;;-0.76;100.00;97799.41;5079728;28;20020;-60
2023/03/08 00:36:08;;;;;;;20.30;11.73;;;;;;;-0.71;100.00;97797.75;5059491;28;20036;-60
2023/03/08 00:38:34;;;;;;;21.15;12.32;;;;;;;-0.71;100.00;97799.59;5062732;28;20504;-60
2023/03/08 00:41:00;;;;;;;19.10;11.65;;;;;;;-0.75;100.00;97799.22;5080481;28;20133;-60
2023/03/08 00:43:26;;;;;;;18.23;9.98;;;;;;;-0.72;100.00;97798.00;5083322;28;20047;-60
2023/03/08 00:45:51;;;;;;;17.70;10.15;;;;;;;-0.74;100.00;97798.19;5075662;28;20024;-60
2023/03/08 00:48:17;;;;;;;18.65;9.88;;;;;;;-0.71;100.00;97789.88;5085235;28;20445;-60
2023/03/08 00:50:42;;;;;;;17.48;10.35;;;;;;;-0.79;100.00;97794.56;5061164;28;20039;-59
2023/03/08 00:53:08;;;;;;;18.45;10.73;;;;;;;-0.77;100.00;97801.22;5077807;28;20041;-60
2023/03/08 00:55:33;;;;;;;16.80;9.35;;;;;;;-0.80;100.00;97801.66;5074019;28;20296;-60
2023/03/08 00:57:59;;;;;;;18.08;8.38;;;;;;;-0.76;100.00;97797.56;5080432;28;20020;-60
2023/03/08 01:00:24;;;;;;;18.05;9.75;;;;;;;-0.78;100.00;97794.34;5058656;28;20563;-59
2023/03/08 01:02:50;;;;;;;16.45;8.18;;;;;;;-0.84;100.00;97797.78;5075768;28;20429;-61
2023/03/08 01:05:15;;;;;;;13.05;8.15;;;;;;;-0.84;100.00;97792.53;5076929;28;20028;-59
2023/03/08 01:07:41;;;;;;;14.05;7.75;;;;;;;-0.85;100.00;97777.75;5077913;28;20386;-60
2023/03/08 01:10:07;;;;;;;15.93;8.43;;;;;;;-0.84;100.00;97781.22;5077355;28;20028;-60
2023/03/08 01:12:33;;;;;;;16.98;8.90;;;;;;;-0.89;100.00;97777.34;5075305;28;20484;-59
2023/03/08 01:14:58;;;;;;;13.50;7.75;;;;;;;-0.93;100.00;97777.97;5054255;28;20044;-60
2023/03/08 01:17:24;;;;;;;14.88;8.10;;;;;;;-0.81;100.00;97768.44;5087371;28;20407;-59
2023/03/08 01:19:49;;;;;;;11.48;7.18;;;;;;;-0.90;100.00;97778.38;5078193;28;20321;-59
2023/03/08 01:22:14;;;;;;;13.55;7.70;;;;;;;-0.91;100.00;97770.69;5088708;28;20058;-59
2023/03/08 01:24:46;;;;;;;13.15;7.40;;;;;;;-0.98;100.00;97764.63;5085683;28;20032;-59
2023/03/08 01:27:12;;;;;;;11.70;7.22;;;;;;;-1.05;100.00;97771.69;5080401;28;20040;-59
2023/03/08 01:29:37;;;;;;;11.95;7.43;;;;;;;-1.01;100.00;97759.78;5079654;28;20032;-60
2023/03/08 01:32:03;;;;;;;12.65;7.82;;;;;;;-1.06;100.00;97751.69;5077350;28;20032;-60
2023/03/08 01:34:28;;;;;;;13.40;7.32;;;;;;;-1.09;100.00;97753.72;5080745;28;20031;-60
2023/03/08 01:36:54;;;;;;;12.80;7.25;;;;;;;-1.10;100.00;97754.72;5078870;28;20257;-60
2023/03/08 01:39:19;;;;;;;14.15;7.25;;;;;;;-1.00;100.00;97750.84;5081498;28;20509;-60
2023/03/08 01:41:45;;;;;;;13.63;6.30;;;;;;;-1.02;100.00;97745.00;5078863;28;20387;-60
2023/03/08 01:44:17;;;;;;;14.75;6.97;;;;;;;-1.05;100.00;97745.41;5087232;28;20040;-60
2023/03/08 01:46:42;;;;;;;11.98;6.35;;;;;;;-1.05;100.00;97746.19;5084396;28;20305;-60
2023/03/08 01:49:27;;;;;;;9.93;5.80;;;;;;;-1.12;100.00;97743.59;5076097;28;20419;-60
2023/03/08 01:52:05;;;;;;;10.07;5.70;;;;;;;-1.10;100.00;97738.97;5058303;28;20196;-60
2023/03/08 01:54:42;;;;;;;11.02;6.28;;;;;;;-1.13;100.00;97728.81;5050482;28;20028;-60
2023/03/08 01:57:15;;;;;;;12.05;5.65;;;;;;;-1.17;100.00;97722.38;5063384;28;20044;-60
2023/03/08 01:59:41;;;;;;;13.23;5.70;;;;;;;-1.22;100.00;97709.03;5063253;28;20111;-60
2023/03/08 02:02:06;;;;;;;9.88;5.85;;;;;;;-1.19;100.00;97706.00;5044300;28;20039;-60
2023/03/08 02:04:31;;;;;;;8.68;4.70;;;;;;;-1.23;100.00;97712.66;5059027;28;20040;-59
2023/03/08 02:06:57;;;;;;;11.20;5.05;;;;;;;-1.15;100.00;97703.75;5053702;28;20040;-59
2023/03/08 02:09:22;;;;;;;9.43;4.65;;;;;;;-1.22;100.00;97702.94;5080441;28;20032;-59
2023/03/08 02:11:48;;;;;;;6.32;4.03;;;;;;;-1.25;100.00;97698.91;5055393;28;20032;-59
2023/03/08 02:14:13;;;;;;;9.18;4.60;;;;;;;-1.18;100.00;97693.66;5069450;28;20418;-59
2023/03/08 02:16:39;;;;;;;7.93;4.40;;;;;;;-1.24;100.00;97684.75;5065382;28;20528;-59
2023/03/08 02:19:08;;;;;;;6.43;3.72;;;;;;;-1.27;100.00;97687.81;5086282;28;20134;-59
2023/03/08 02:21:34;;;;;;;4.93;3.30;;;;;;;-1.23;100.00;97686.38;5058466;28;20025;-60
2023/03/08 02:24:16;;;;;;;5.97;3.65;;;;;;;-1.21;100.00;97686.97;5080322;28;20112;-60
2023/03/08 02:26:41;;;;;;;6.22;3.88;;;;;;;-1.18;100.00;97683.94;5079774;28;20055;-60
2023/03/08 02:29:07;;;;;;;6.32;3.75;;;;;;;-1.21;100.00;97684.34;5071227;28;20502;-60
2023/03/08 02:31:32;;;;;;;9.30;4.20;;;;;;;-1.22;100.00;97676.66;5083458;28;20029;-60
2023/03/08 02:33:57;;;;;;;7.43;4.05;;;;;;;-1.18;100.00;97678.66;5083125;28;20505;-60
2023/03/08 02:36:23;;;;;;;10.43;4.68;;;;;;;-1.20;100.00;97675.47;5080661;28;20038;-60
2023/03/08 02:38:48;;;;;;;6.70;4.32;;;;;;;-1.25;100.00;97667.34;5085814;28;20032;-60
2023/03/08 02:41:14;;;;;;;8.60;4.78;;;;;;;-1.15;100.00;97662.50;5087380;28;20032;-60
2023/03/08 02:43:39;;;;;;;9.90;4.72;;;;;;;-1.05;100.00;97650.72;5084540;28;20207;-60
2023/03/08 02:46:04;;;;;;;8.90;4.72;;;;;;;-1.05;100.00;97658.63;5055121;28;20435;-60
2023/03/08 02:48:30;;;;;;;10.00;5.13;;;;;;;-1.02;100.00;97655.56;5063330;28;20054;-60
2023/03/08 02:50:55;;;;;;;8.02;5.03;;;;;;;-1.01;100.00;97652.75;5083750;28;20040;-60
2023/03/08 02:53:21;;;;;;;8.38;4.95;;;;;;;-1.03;100.00;97640.81;5083400;28;20032;-60
2023/03/08 02:55:46;;;;;;;7.65;4.72;;;;;;;-1.03;100.00;97643.44;5078531;28;20134;-60
2023/03/08 02:58:12;;;;;;;8.30;4.80;;;;;;;-1.08;100.00;97636.19;5090098;28;20405;-60
2023/03/08 03:00:37;;;;;;;14.95;5.88;;;;;;;-1.03;100.00;97632.94;5088077;28;20031;-60
2023/03/08 03:03:03;;;;;;;11.00;5.22;;;;;;;-0.97;100.00;97626.84;5081138;28;20028;-60
2023/03/08 03:05:28;;;;;;;10.05;5.18;;;;;;;-1.02;100.00;97624.00;5078450;28;20346;-60
2023/03/08 03:07:55;;;;;;;10.30;5.22;;;;;;;-1.06;100.00;97626.25;5073703;28;20474;-60
2023/03/08 03:10:21;;;;;;;11.30;5.70;;;;;;;-1.06;100.00;97620.19;5096393;28;20053;-60
2023/03/08 03:12:46;;;;;;;8.55;5.40;;;;;;;-1.12;100.00;97619.22;5077664;28;20051;-60
2023/03/08 03:15:13;;;;;;;8.45;5.43;;;;;;;-1.13;100.00;97621.00;5090434;28;20082;-60
2023/03/08 03:17:38;;;;;;;10.45;5.38;;;;;;;-1.09;100.00;97614.34;5090298;28;20052;-60
2023/03/08 03:20:10;;;;;;;11.52;5.90;;;;;;;-1.05;100.00;97608.66;5082817;28;20097;-60
2023/03/08 03:22:36;;;;;;;10.63;5.90;;;;;;;-1.05;100.00;97603.41;5067031;28;20127;-60
2023/03/08 03:25:01;;;;;;;10.35;5.90;;;;;;;-0.99;100.00;97605.22;5083904;28;20085;-60
2023/03/08 03:27:27;;;;;;;11.93;5.30;;;;;;;-0.94;100.00;97605.41;5089188;28;20085;-60
2023/03/08 03:29:52;;;;;;;10.20;5.68;;;;;;;-0.96;100.00;97594.28;5088001;28;20031;-60
2023/03/08 03:32:18;;;;;;;9.13;5.03;;;;;;;-1.08;100.00;97587.00;5057924;28;20036;-60
2023/03/08 03:34:43;;;;;;;11.30;5.60;;;;;;;-1.02;100.00;97587.19;5079255;28;20094;-60
2023/03/08 03:37:08;;;;;;;9.55;5.80;;;;;;;-1.00;100.00;97586.00;5081749;28;20029;-60
2023/03/08 03:39:37;;;;;;;9.57;4.88;;;;;;;-0.99;100.00;97589.44;5090387;28;20020;-61
2023/03/08 03:42:06;;;;;;;7.35;4.80;;;;;;;-1.11;100.00;97574.28;5080582;28;20024;-60
2023/03/08 03:44:32;;;;;;;9.43;5.47;;;;;;;-1.16;100.00;97579.38;5088925;28;20412;-60
2023/03/08 03:46:57;;;;;;;8.88;5.25;;;;;;;-1.18;100.00;97572.69;5034569;28;20037;-60
2023/03/08 03:49:23;;;;;;;8.95;5.60;;;;;;;-1.02;100.00;97572.25;5087776;28;20030;-60
2023/03/08 03:51:48;;;;;;;8.43;5.55;;;;;;;-0.99;100.00;97573.66;5079197;28;20025;-61
2023/03/08 03:54:13;;;;;;;9.02;5.82;;;;;;;-0.95;100.00;97567.78;5084608;28;20032;-60
2023/03/08 03:56:39;;;;;;;9.80;5.97;;;;;;;-0.91;100.00;97568.94;5089541;28;20016;-60
2023/03/08 03:59:04;;;;;;;10.40;6.28;;;;;;;-0.90;100.00;97565.31;5076051;28;20024;-60
2023/03/08 04:01:30;;;;;;;10.68;6.10;;;;;;;-0.85;100.00;97559.41;5082672;28;20023;-60
2023/03/08 04:03:56;;;;;;;13.52;6.47;;;;;;;-0.94;100.00;97556.22;5080971;28;20040;-60
2023/03/08 04:06:28;;;;;;;13.55;6.80;;;;;;;-1.01;100.00;97552.81;5071337;28;20032;-60
2023/03/08 04:08:55;;;;;;;13.32;7.05;;;;;;;-0.94;100.00;97561.50;5057726;28;20510;-60
2023/03/08 04:11:23;;;;;;;12.45;7.35;;;;;;;-0.89;100.00;97563.50;5072663;28;20028;-60
2023/03/08 04:13:49;;;;;;;15.27;7.05;;;;;;;-0.84;100.00;97553.16;5054773;28;20502;-60
2023/03/08 04:16:15;;;;;;;12.43;6.45;;;;;;;-0.85;100.00;97553.34;5066354;28;20033;-60
2023/03/08 04:18:40;;;;;;;14.55;6.88;;;;;;;-0.84;100.00;97547.88;5059778;28;20445;-60
2023/03/08 04:21:06;;;;;;;14.68;8.02;;;;;;;-0.79;100.00;97555.94;5070724;28;20032;-60
2023/03/08 04:23:32;;;;;;;17.27;7.45;;;;;;;-0.75;100.00;97554.53;5065293;28;20243;-60
2023/03/08 04:25:58;;;;;;;13.85;8.02;;;;;;;-0.75;100.00;97546.63;5059157;28;20368;-60
2023/03/08 04:28:23;;;;;;;17.17;8.60;;;;;;;-0.73;100.00;97544.56;5060926;28;20035;-60
2023/03/08 04:30:48;;;;;;;15.30;8.77;;;;;;;-0.74;100.00;97537.72;5056399;28;20025;-60
2023/03/08 04:33:14;;;;;;;15.50;8.02;;;;;;;-0.78;100.00;97540.97;5063792;28;20086;-60
2023/03/08 04:35:39;;;;;;;16.63;8.00;;;;;;;-0.77;100.00;97546.03;5051112;28;20021;-60
2023/03/08 04:38:05;;;;;;;23.88;9.02;;;;;;;-0.53;100.00;97533.13;5051149;28;20028;-60
2023/03/08 04:40:31;;;;;;;16.75;8.82;;;;;;;-0.70;100.00;97538.91;5071419;28;20032;-60
2023/03/08 04:42:56;;;;;;;16.48;8.80;;;;;;;-0.78;100.00;97536.50;5056361;28;20033;-61
2023/03/08 04:45:22;;;;;;;15.52;8.98;;;;;;;-0.84;100.00;97526.84;5060532;28;20031;-61
2023/03/08 04:47:47;;;;;;;14.48;8.18;;;;;;;-0.86;100.00;97526.25;5055621;28;20526;-60
2023/03/08 04:50:13;;;;;;;13.23;8.13;;;;;;;-0.87;100.00;97522.00;5062434;28;20028;-60
2023/03/08 04:52:38;;;;;;;15.00;8.77;;;;;;;-0.88;100.00;97515.91;5056137;28;20032;-60
2023/03/08 04:55:04;;;;;;;14.35;7.80;;;;;;;-0.93;100.00;97512.31;5068351;28;20028;-60
2023/03/08 04:57:30;;;;;;;15.32;8.55;;;;;;;-0.89;100.00;97505.63;5053379;28;20039;-60
2023/03/08 04:59:55;;;;;;;16.27;8.60;;;;;;;-0.92;100.00;97501.59;5056714;28;20090;-60
2023/03/08 05:02:21;;;;;;;14.40;8.73;;;;;;;-0.91;100.00;97491.88;5054263;28;20039;-60
2023/03/08 05:04:47;;;;;;;15.35;8.80;;;;;;;-0.89;100.00;97487.22;5054349;28;20104;-60
2023/03/08 05:07:12;;;;;;;15.27;8.50;;;;;;;-0.91;100.00;97482.16;5052127;28;20021;-60
2023/03/08 05:09:38;;;;;;;15.38;8.48;;;;;;;-0.86;100.00;97476.25;5057330;28;20029;-60
2023/03/08 05:12:03;;;;;;;12.20;7.60;;;;;;;-0.87;100.00;97464.94;5052039;28;20079;-60
2023/03/08 05:14:29;;;;;;;14.82;8.90;;;;;;;-0.84;100.00;97463.72;5075824;28;20028;-61
2023/03/08 05:16:57;;;;;;;15.32;8.63;;;;;;;-0.91;100.00;97462.94;5073619;28;20039;-61
2023/03/08 05:19:23;;;;;;;16.08;9.13;;;;;;;-0.94;100.00;97455.47;5063319;28;20036;-60
2023/03/08 05:21:48;;;;;;;15.55;8.77;;;;;;;-0.83;100.00;97443.47;5075273;28;20028;-60
2023/03/08 05:24:14;;;;;;;17.15;9.20;;;;;;;-0.85;100.00;97433.16;5078970;28;20027;-60
2023/03/08 05:26:39;;;;;;;16.00;9.23;;;;;;;-0.95;100.00;97425.75;5073894;28;20027;-60
2023/03/08 05:29:05;;;;;;;15.77;8.82;;;;;;;-0.99;100.00;97419.28;5078980;28;20020;-61
2023/03/08 05:31:31;;;;;;;17.55;9.60;;;;;;;-0.99;100.00;97408.78;5079608;28;20298;-60
2023/03/08 05:33:56;;;;;;;17.20;10.00;;;;;;;-0.92;100.00;97408.75;5087297;28;20051;-60
2023/03/08 05:36:22;;;;;;;17.48;8.88;;;;;;;-0.90;100.00;97407.50;5085425;28;20054;-60
2023/03/08 05:38:51;;;;;;;14.20;7.70;;;;;;;-0.83;100.00;97391.66;5076898;28;20036;-60
2023/03/08 05:41:16;;;;;;;16.50;9.35;;;;;;;-0.91;100.00;97387.47;5055447;28;20041;-59
2023/03/08 05:43:41;;;;;;;16.25;9.27;;;;;;;-0.91;100.00;97389.31;5069860;28;20415;-60
2023/03/08 05:46:11;;;;;;;16.77;9.32;;;;;;;-0.81;100.00;97379.09;5078317;28;20043;-60
2023/03/08 05:48:36;;;;;;;16.80;9.25;;;;;;;-0.74;100.00;97393.00;5082491;28;20078;-59
2023/03/08 05:51:06;;;;;;;17.40;10.15;;;;;;;-0.84;100.00;97394.53;5077757;28;20033;-60
2023/03/08 05:53:31;;;;;;;21.75;10.45;;;;;;;-0.72;100.00;97367.31;5081738;28;20430;-60
2023/03/08 05:55:57;;;;;;;23.92;12.25;;;;;;;-0.62;100.00;97371.25;5081623;28;20028;-60
2023/03/08 05:58:22;;;;;;;20.80;11.25;;;;;;;-0.53;100.00;97368.13;5077748;28;20106;-60
2023/03/08 06:00:47;;;;;;;25.85;12.88;;;;;;;-0.51;100.00;97367.91;5075037;28;20033;-60
2023/03/08 06:03:13;;;;;;;25.65;13.43;;;;;;;-0.54;100.00;97355.19;5081373;28;20035;-59
2023/03/08 06:05:39;;;;;;;29.77;13.75;;;;;;;-0.40;100.00;97358.50;5075314;28;21815;-59
2023/03/08 06:08:04;;;;;;;30.80;14.48;;;;;;;-0.42;100.00;97361.38;5077671;28;20028;-59
2023/03/08 06:10:30;;;;;;;28.23;13.50;;;;;;;-0.33;100.00;97353.97;5086471;28;20034;-60
2023/03/08 06:12:55;;;;;;;30.52;15.88;;;;;;;-0.31;100.00;97339.56;5069804;28;20439;-60
2023/03/08 06:15:20;;;;;;;27.45;12.40;;;;;;;-0.31;100.00;97352.72;5076993;28;20382;-59
2023/03/08 06:17:46;;;;;;;27.27;14.32;;;;;;;-0.29;100.00;97348.06;5081840;28;20055;-59
2023/03/08 06:20:11;;;;;;;28.27;13.05;;;;;;;-0.14;100.00;97341.63;5082841;28;20491;-60
2023/03/08 06:22:37;;;;;;;28.17;13.98;;;;;;;-0.25;100.00;97345.78;5076828;28;20024;-60
2023/03/08 06:25:03;;;;;;;30.85;14.45;;;;;;;-0.19;100.00;97341.50;5085563;28;20021;-59
2023/03/08 06:27:28;;;;;;;27.75;13.57;;;;;;;-0.18;100.00;97333.34;5079457;28;20089;-59
2023/03/08 06:29:54;;;;;;;28.33;13.35;;;;;;;-0.17;100.00;97331.53;5075596;28;20398;-59
2023/03/08 06:32:19;;;;;;;30.02;13.20;;;;;;;-0.18;100.00;97329.91;5077713;28;20036;-59
2023/03/08 06:34:46;;;;;;;29.02;13.63;;;;;;;-0.18;100.00;97327.28;5077791;28;20038;-59
2023/03/08 06:37:12;;;;;;;29.38;12.32;;;;;;;-0.11;100.00;97318.28;5088176;28;20028;-59
2023/03/08 06:39:37;;;;;;;21.83;10.90;;;;;;;-0.11;100.00;97304.31;5082289;28;20375;-59
2023/03/08 06:42:03;;;;;;;24.65;12.98;;;;;;;-0.02;100.00;97309.06;5063771;28;20032;-59
2023/03/08 06:44:29;;;;;;;24.98;13.70;;;;;;;-0.06;100.00;97301.81;5088900;28;20024;-59
2023/03/08 06:46:54;;;;;;;28.25;13.00;;;;;;;-0.01;100.00;97288.78;5092416;28;20043;-59
2023/03/08 06:49:20;;;;;;;26.20;12.50;;;;;;;0.03;100.00;97270.72;5078255;28;20432;-59
2023/03/08 06:51:45;;;;;;;23.75;12.48;;;;;;;0.03;100.00;97268.09;5083741;28;20137;-59
2023/03/08 06:54:16;;;;;;;15.55;8.27;;;;;;;-0.10;100.00;97274.31;5085833;28;20040;-59
2023/03/08 06:56:44;;;;;;;24.17;13.63;;;;;;;-0.05;100.00;97266.53;5083767;28;20558;-59
2023/03/08 06:59:11;;;;;;;31.63;13.60;;;;;;;-0.04;100.00;97252.38;5079129;28;20371;-60
2023/03/08 07:01:36;;;;;;;28.70;14.38;;;;;;;0.02;100.00;97243.56;5070540;28;20407;-59
2023/03/08 07:04:01;;;;;;;27.40;13.85;;;;;;;0.05;100.00;97234.41;5077167;28;20051;-61
2023/03/08 07:06:27;;;;;;;31.50;16.55;;;;;;;-0.03;100.00;97238.16;5068794;28;20028;-60
2023/03/08 07:08:53;;;;;;;39.08;16.45;;;;;;;-0.03;100.00;97231.06;5078140;28;20261;-60
2023/03/08 07:11:18;;;;;;;24.55;15.32;;;;;;;-0.12;100.00;97239.53;5075407;28;20070;-59
2023/03/08 07:13:43;;;;;;;39.33;18.40;;;;;;;-0.09;100.00;97218.78;5074078;28;20371;-59
2023/03/08 07:16:10;;;;;;;38.38;19.25;;;;;;;-0.03;100.00;97222.38;5076388;28;20021;-60
2023/03/08 07:18:36;;;;;;;26.60;13.93;;;;;;;-0.12;100.00;97221.09;5060556;28;20089;-59
2023/03/08 07:21:01;;;;;;;32.38;16.45;;;;;;;-0.05;100.00;97213.88;5080833;28;20044;-59
2023/03/08 07:23:27;;;;;;;33.13;17.50;;;;;;;-0.01;100.00;97202.69;5067885;28;20132;-59
2023/03/08 07:25:52;;;;;;;55.40;29.67;;;;;;;-0.08;100.00;97207.22;5072291;28;20032;-59
2023/03/08 07:28:17;;;;;;;38.28;17.40;;;;;;;0.01;100.00;97205.09;5073453;28;20368;-59
2023/03/08 07:30:47;;;;;;;50.90;24.50;;;;;;;-0.03;100.00;97196.03;5080463;28;20036;-59
2023/03/08 07:33:13;;;;;;;42.00;21.60;;;;;;;-0.01;100.00;97197.41;5077586;28;20034;-59
2023/03/08 07:35:38;;;;;;;37.22;19.50;;;;;;;-0.03;100.00;97190.75;5063606;28;20457;-58
2023/03/08 07:38:04;;;;;;;50.38;25.17;;;;;;;0.01;100.00;97191.13;5078314;28;20054;-58
2023/03/08 07:40:29;;;;;;;54.63;24.25;;;;;;;0.06;100.00;97178.09;5068401;28;20137;-58
2023/03/08 07:42:55;;;;;;;46.13;19.33;;;;;;;0.08;100.00;97176.84;5072268;28;20032;-58
2023/03/08 07:45:21;;;;;;;36.83;17.40;;;;;;;0.02;100.00;97177.72;5061185;28;20023;-58
2023/03/08 07:47:50;;;;;;;32.35;17.08;;;;;;;0.04;100.00;97175.66;5085974;28;20024;-58
2023/03/08 07:50:16;;;;;;;38.13;18.30;;;;;;;0.18;100.00;97181.56;5081657;28;20039;-59
2023/03/08 07:52:41;;;;;;;38.10;19.17;;;;;;;0.17;100.00;97179.94;5083618;28;20028;-58
2023/03/08 07:55:07;;;;;;;40.97;18.08;;;;;;;0.10;100.00;97185.31;5082336;28;20032;-59
2023/03/08 07:57:32;;;;;;;28.00;13.50;;;;;;;-0.06;100.00;97175.41;5088880;28;20024;-58
2023/03/08 07:59:58;;;;;;;38.53;18.75;;;;;;;0.03;100.00;97168.81;5079330;28;21689;-58
2023/03/08 08:02:23;;;;;;;28.73;13.68;;;;;;;-0.12;100.00;97177.13;5085266;28;20031;-58
2023/03/08 08:04:49;;;;;;;34.65;17.65;;;;;;;-0.06;100.00;97165.66;5062501;28;20339;-58
2023/03/08 08:07:15;;;;;;;49.28;25.20;;;;;;;-0.16;100.00;97165.41;5074272;28;20418;-58
2023/03/08 08:09:40;;;;;;;35.55;16.98;;;;;;;-0.12;100.00;97150.00;5073938;28;20514;-58
2023/03/08 08:12:06;;;;;;;35.33;16.13;;;;;;;-0.06;100.00;97149.88;5074299;28;20245;-59
2023/03/08 08:14:31;;;;;;;42.90;20.10;;;;;;;0.02;100.00;97156.66;5077726;28;20067;-58
2023/03/08 08:16:57;;;;;;;35.33;19.30;;;;;;;0.02;100.00;97140.03;5076213;28;20028;-58
2023/03/08 08:19:22;;;;;;;39.65;18.40;;;;;;;0.16;100.00;97133.56;5078759;28;20051;-58
2023/03/08 08:21:48;;;;;;;37.25;17.40;;;;;;;0.16;100.00;97131.72;5076534;28;20031;-58
2023/03/08 08:24:13;;;;;;;37.83;15.85;;;;;;;-0.05;100.00;97132.22;5080778;28;20080;-59
2023/03/08 08:26:39;;;;;;;49.28;17.75;;;;;;;0.01;100.00;97128.72;5083048;28;20039;-59
2023/03/08 08:29:04;;;;;;;40.20;17.80;;;;;;;0.01;100.00;97110.28;5075267;28;20044;-58
2023/03/08 08:31:30;;;;;;;37.05;18.27;;;;;;;0.13;100.00;97120.84;5087664;28;20044;-58
2023/03/08 08:33:58;;;;;;;37.53;18.13;;;;;;;0.48;100.00;97114.78;5059801;28;20758;-58
2023/03/08 08:36:24;;;;;;;33.85;15.30;;;;;;;0.33;100.00;97120.53;5072722;28;20024;-57
2023/03/08 08:38:49;;;;;;;35.75;17.40;;;;;;;0.24;100.00;97112.13;5076517;28;20028;-58
2023/03/08 08:41:17;;;;;;;39.92;18.70;;;;;;;0.32;100.00;97111.78;5081415;28;20556;-58
2023/03/08 08:43:43;;;;;;;30.45;14.60;;;;;;;0.20;100.00;97106.53;5073470;28;20482;-58
2023/03/08 08:46:09;;;;;;;40.92;17.02;;;;;;;0.20;100.00;97101.25;5076629;28;20116;-58
2023/03/08 08:48:36;;;;;;;37.78;17.33;;;;;;;0.33;100.00;97099.44;5078144;28;20201;-58
2023/03/08 08:51:02;;;;;;;37.80;17.02;;;;;;;0.56;100.00;97106.53;5081026;28;20036;-58
2023/03/08 08:53:30;;;;;;;35.30;16.73;;;;;;;0.45;100.00;97108.16;5084304;28;20019;-58
2023/03/08 08:55:56;;;;;;;26.05;13.52;;;;;;;0.79;100.00;97103.88;5069936;28;20361;-58
2023/03/08 08:58:22;;;;;;;29.30;13.00;;;;;;;0.47;100.00;97106.06;5056484;28;20024;-58
2023/03/08 09:00:47;;;;;;;29.10;12.65;;;;;;;0.33;100.00;97094.16;5077050;28;20400;-58
2023/03/08 09:03:13;;;;;;;32.47;14.73;;;;;;;0.43;100.00;97099.66;5082864;28;20406;-58
2023/03/08 09:05:39;;;;;;;34.90;15.60;;;;;;;0.44;100.00;97090.72;5070087;28;20040;-61
2023/03/08 09:08:05;;;;;;;34.30;15.52;;;;;;;0.78;100.00;97091.72;5072100;28;20037;-58
2023/03/08 09:10:32;;;;;;;40.08;18.60;;;;;;;1.16;100.00;97089.59;5081179;28;20031;-59
2023/03/08 09:12:58;;;;;;;36.67;17.38;;;;;;;0.60;100.00;97090.03;5079415;28;20119;-58
2023/03/08 09:15:24;;;;;;;35.75;16.20;;;;;;;1.16;100.00;97086.94;5061016;28;20051;-58
2023/03/08 09:17:49;;;;;;;24.40;11.32;;;;;;;0.81;100.00;97079.91;5078849;28;20118;-58
2023/03/08 09:20:15;;;;;;;33.72;16.60;;;;;;;0.98;100.00;97075.53;5079392;28;20036;-58
2023/03/08 09:22:40;;;;;;;28.30;12.93;;;;;;;0.99;100.00;97066.56;5070872;28;20047;-58
2023/03/08 09:25:06;;;;;;;35.22;15.98;;;;;;;0.95;100.00;97068.06;5089021;28;20040;-58
2023/03/08 09:27:32;;;;;;;30.98;15.10;;;;;;;1.01;100.00;97061.84;5088922;28;20039;-58
2023/03/08 09:29:57;;;;;;;31.75;16.20;;;;;;;0.97;100.00;97052.78;5059852;28;20114;-58
2023/03/08 09:32:23;;;;;;;30.58;15.90;;;;;;;0.79;100.00;97058.25;5086859;28;20027;-58
2023/03/08 09:34:50;;;;;;;33.25;15.88;;;;;;;1.11;100.00;97050.69;5084556;28;20127;-58
2023/03/08 09:37:15;;;;;;;30.42;15.40;;;;;;;0.91;100.00;97037.91;5078851;28;20113;-59
2023/03/08 09:39:41;;;;;;;23.77;12.32;;;;;;;0.98;100.00;97043.88;5077704;28;20279;-58
2023/03/08 09:42:13;;;;;;;32.65;13.77;;;;;;;1.29;100.00;97044.44;5078550;28;20061;-58
2023/03/08 09:45:15;;;;;;;32.75;15.32;;;;;;;1.41;100.00;97034.63;5049959;28;20024;-58
2023/03/08 09:47:49;;;;;;;26.80;13.20;;;;;;;1.00;100.00;97031.25;5049676;28;20047;-60
2023/03/08 09:50:29;;;;;;;28.73;13.70;;;;;;;1.39;100.00;97033.25;5086939;28;20119;-59
2023/03/08 09:53:17;;;;;;;30.42;14.82;;;;;;;1.11;100.00;97026.16;5078558;28;20036;-60
2023/03/08 09:55:52;;;;;;;34.13;16.08;;;;;;;1.10;100.00;97032.47;5079732;28;20477;-60
2023/03/08 09:58:49;;;;;;;31.33;15.32;;;;;;;1.22;100.00;97028.75;5047281;28;20025;-59
2023/03/08 10:01:47;;;;;;;25.73;13.05;;;;;;;1.08;100.00;97030.88;5069744;28;20490;-59
2023/03/08 10:04:18;;;;;;;23.77;11.45;;;;;;;1.02;100.00;97028.34;5052958;28;20061;-60
2023/03/08 10:07:20;;;;;;;21.75;12.05;;;;;;;1.25;100.00;97020.38;5077199;28;20040;-60
2023/03/08 10:10:11;;;;;;;29.92;15.73;;;;;;;1.72;100.00;97016.66;5077451;28;20040;-60
2023/03/08 10:12:48;;;;;;;27.60;14.27;;;;;;;1.83;100.00;97015.00;5063702;28;20461;-60
2023/03/08 10:15:16;;;;;;;26.88;14.45;;;;;;;1.83;100.00;97005.22;5052511;28;20124;-59
2023/03/08 10:17:50;;;;;;;27.20;15.40;;;;;;;1.56;100.00;97009.53;5064731;28;20039;-59
2023/03/08 10:20:23;;;;;;;27.15;14.00;;;;;;;1.68;100.00;97013.69;5077838;28;20294;-60
2023/03/08 10:22:54;;;;;;;26.85;14.98;;;;;;;1.53;100.00;96997.63;5062619;28;20097;-59
2023/03/08 10:25:32;;;;;;;31.38;15.27;;;;;;;1.66;100.00;96996.50;5060417;28;20036;-59
2023/03/08 10:27:59;;;;;;;27.13;14.18;;;;;;;1.46;100.00;97000.41;5075260;28;20413;-59
2023/03/08 10:30:30;;;;;;;30.23;14.60;;;;;;;1.91;100.00;97007.47;5076475;28;20417;-59
2023/03/08 10:32:58;;;;;;;28.98;14.98;;;;;;;2.52;100.00;96993.50;5053349;28;20041;-60
2023/03/08 10:35:36;;;;;;;26.48;13.98;;;;;;;2.42;100.00;96998.66;5066062;28;20482;-59
2023/03/08 10:38:03;;;;;;;22.27;12.52;;;;;;;2.30;100.00;96986.34;5079764;28;20447;-60
2023/03/08 10:40:28;;;;;;;21.83;12.73;;;;;;;2.01;100.00;96990.16;5057370;28;20020;-60
2023/03/08 10:42:59;;;;;;;19.10;11.07;;;;;;;1.40;100.00;96993.44;5078988;28;20076;-60
2023/03/08 10:45:26;;;;;;;22.60;12.68;;;;;;;1.79;100.00;96990.88;5063537;28;20056;-60
2023/03/08 10:47:53;;;;;;;16.15;8.68;;;;;;;1.83;100.00;96992.03;5060096;28;20028;-60
2023/03/08 10:50:20;;;;;;;23.70;11.57;;;;;;;2.08;100.00;96988.16;5086764;28;20059;-61
2023/03/08 10:52:47;;;;;;;22.60;11.40;;;;;;;1.74;100.00;96998.72;5086212;28;20383;-60
2023/03/08 10:55:19;;;;;;;19.85;10.18;;;;;;;1.68;100.00;96999.72;5070108;28;20033;-60
2023/03/08 10:58:05;;;;;;;17.67;9.98;;;;;;;1.47;100.00;96991.44;5070075;28;20441;-60
2023/03/08 11:00:32;;;;;;;20.27;11.20;;;;;;;1.65;100.00;96985.13;5081764;28;20107;-61
2023/03/08 11:03:02;;;;;;;17.23;8.93;;;;;;;1.41;100.00;96984.47;5082354;28;20043;-60
2023/03/08 11:05:28;;;;;;;15.02;7.47;;;;;;;1.23;100.00;96982.06;5090364;28;20370;-60
2023/03/08 11:07:56;;;;;;;15.90;8.52;;;;;;;1.54;100.00;96980.72;5076286;28;20074;-59
2023/03/08 11:10:23;;;;;;;16.63;8.85;;;;;;;1.70;100.00;96981.78;5083213;28;20477;-59
2023/03/08 11:13:15;;;;;;;14.43;8.23;;;;;;;1.43;100.00;96977.13;5078991;28;20489;-59
2023/03/08 11:15:41;;;;;;;13.18;7.78;;;;;;;1.69;100.00;96975.69;5067725;28;20504;-59
2023/03/08 11:18:25;;;;;;;15.57;9.35;;;;;;;1.27;100.00;96975.25;5066367;28;20509;-59